createdAt,value
2022-08-15T00:00:35.394Z,27.02
2022-08-15T00:01:39.344Z,27.15
2022-08-15T00:02:34.293Z,27.98
2022-08-15T00:03:23.791Z,27.63
2022-08-15T00:04:04.924Z,27.98
2022-08-15T00:04:40.766Z,26.77
2022-08-15T00:05:25.083Z,26.92
2022-08-15T00:06:02.885Z,27.48
2022-08-15T00:06:58.267Z,28.00
2022-08-15T00:07:45.946Z,28.02
2022-08-15T00:08:50.354Z,26.58
2022-08-15T00:09:24.064Z,29.05
2022-08-15T00:10:59.986Z,30.52
2022-08-15T00:11:20.189Z,30.25
2022-08-15T00:11:58.521Z,29.92
2022-08-15T00:12:36.620Z,29.48
2022-08-15T00:13:16.059Z,27.90
2022-08-15T00:14:39.096Z,28.58
2022-08-15T00:15:18.199Z,28.63
2022-08-15T00:15:56.512Z,28.92
2022-08-15T00:16:37.486Z,29.48
2022-08-15T00:17:12.643Z,29.30
2022-08-15T00:17:49.632Z,27.83
2022-08-15T00:18:28.944Z,27.90
2022-08-15T00:19:09.450Z,27.85
2022-08-15T00:19:49.464Z,27.63
2022-08-15T00:20:33.282Z,25.17
2022-08-15T00:21:10.016Z,25.63
2022-08-15T00:21:51.592Z,25.30
2022-08-15T00:23:12.664Z,25.92
2022-08-15T00:23:45.997Z,27.35
2022-08-15T00:24:29.849Z,28.70
2022-08-15T00:25:07.828Z,28.00
2022-08-15T00:25:48.235Z,27.05
2022-08-15T00:26:56.236Z,27.42
2022-08-15T00:27:33.413Z,25.63
2022-08-15T00:28:10.998Z,26.98
2022-08-15T00:28:47.003Z,26.60
2022-08-15T00:29:38.134Z,27.30
2022-08-15T00:30:24.623Z,27.20
2022-08-15T00:30:59.587Z,27.40
2022-08-15T00:31:41.578Z,26.05
2022-08-15T00:33:02.355Z,27.23
2022-08-15T00:33:20.637Z,26.42
2022-08-15T00:33:58.261Z,25.77
2022-08-15T00:34:38.781Z,26.90
2022-08-15T00:35:38.571Z,27.10
2022-08-15T00:36:53.200Z,26.38
2022-08-15T00:37:10.795Z,26.88
2022-08-15T00:38:12.203Z,25.73
2022-08-15T00:38:40.713Z,25.77
2022-08-15T00:39:16.745Z,25.75
2022-08-15T00:39:56.490Z,26.67
2022-08-15T00:40:52.723Z,25.55
2022-08-15T00:41:43.087Z,26.77
2022-08-15T00:42:17.541Z,26.73
2022-08-15T00:42:52.600Z,26.98
2022-08-15T00:43:31.005Z,25.67
2022-08-15T00:44:09.307Z,25.50
2022-08-15T00:44:52.751Z,25.75
2022-08-15T00:45:33.945Z,25.80
2022-08-15T00:46:13.715Z,26.05
2022-08-15T00:46:58.827Z,25.73
2022-08-15T00:47:38.721Z,26.60
2022-08-15T00:48:31.713Z,26.20
2022-08-15T00:49:11.937Z,26.48
2022-08-15T00:50:02.183Z,27.85
2022-08-15T00:50:42.966Z,27.30
2022-08-15T00:51:21.237Z,25.60
2022-08-15T00:52:19.787Z,26.20
2022-08-15T00:53:02.740Z,25.30
2022-08-15T00:53:37.083Z,25.13
2022-08-15T00:54:55.832Z,25.63
2022-08-15T00:55:11.044Z,25.73
2022-08-15T00:55:52.321Z,26.92
2022-08-15T00:56:31.225Z,24.83
2022-08-15T00:57:10.506Z,25.30
2022-08-15T00:57:58.036Z,23.92
2022-08-15T00:58:43.692Z,24.25
2022-08-15T00:59:20.105Z,25.90
2022-08-15T00:59:58.873Z,25.58
2022-08-15T01:00:38.258Z,24.83
2022-08-15T01:01:20.103Z,24.75
2022-08-15T01:02:01.436Z,24.60
2022-08-15T01:02:38.036Z,25.33
2022-08-15T01:03:14.572Z,25.52
2022-08-15T01:03:56.502Z,24.95
2022-08-15T01:04:35.162Z,25.42
2022-08-15T01:05:14.827Z,25.90
2022-08-15T01:05:52.695Z,24.58
2022-08-15T01:06:28.232Z,24.33
2022-08-15T01:07:07.694Z,25.80
2022-08-15T01:07:46.771Z,25.25
2022-08-15T01:08:36.013Z,24.85
2022-08-15T01:09:15.158Z,23.13
2022-08-15T01:09:52.339Z,24.67
2022-08-15T01:10:26.817Z,24.08
2022-08-15T01:11:13.046Z,24.77
2022-08-15T01:11:50.729Z,25.02
2022-08-15T01:12:26.473Z,24.92
2022-08-15T01:13:00.623Z,25.17
2022-08-15T01:14:02.588Z,25.48
2022-08-15T01:14:55.879Z,25.60
2022-08-15T01:15:28.345Z,24.48
2022-08-15T01:16:16.268Z,24.27
2022-08-15T01:16:52.217Z,24.52
2022-08-15T01:17:27.590Z,25.42
2022-08-15T01:18:22.365Z,24.35
2022-08-15T01:18:57.592Z,24.80
2022-08-15T01:19:33.305Z,24.23
2022-08-15T01:20:24.940Z,24.90
2022-08-15T01:21:42.838Z,25.15
2022-08-15T01:22:28.311Z,25.02
2022-08-15T01:23:05.591Z,23.60
2022-08-15T01:23:54.938Z,24.63
2022-08-15T01:25:26.014Z,24.52
2022-08-15T01:26:38.522Z,24.00
2022-08-15T01:26:58.771Z,23.33
2022-08-15T01:27:39.923Z,24.70
2022-08-15T01:28:17.073Z,24.00
2022-08-15T01:28:55.276Z,24.00
2022-08-15T01:29:29.959Z,23.88
2022-08-15T01:31:00.685Z,23.38
2022-08-15T01:31:05.856Z,23.02
2022-08-15T01:31:47.897Z,22.02
2022-08-15T01:32:27.223Z,23.10
2022-08-15T01:33:01.740Z,23.92
2022-08-15T01:33:39.958Z,23.30
2022-08-15T01:34:17.441Z,23.17
2022-08-15T01:34:52.139Z,23.15
2022-08-15T01:35:26.863Z,23.73
2022-08-15T01:36:02.609Z,23.02
2022-08-15T01:36:36.351Z,22.83
2022-08-15T01:37:11.845Z,23.90
2022-08-15T01:37:57.614Z,23.55
2022-08-15T01:39:00.265Z,23.15
2022-08-15T01:39:34.098Z,23.20
2022-08-15T01:40:53.775Z,22.83
2022-08-15T01:41:15.083Z,22.90
2022-08-15T01:41:55.988Z,23.00
2022-08-15T01:42:33.523Z,23.52
2022-08-15T01:43:15.862Z,24.02
2022-08-15T01:43:58.280Z,23.55
2022-08-15T01:44:50.065Z,23.33
2022-08-15T01:45:34.906Z,23.00
2022-08-15T01:46:11.989Z,23.35
2022-08-15T01:46:49.352Z,23.52
2022-08-15T01:47:27.853Z,23.15
2022-08-15T01:48:20.209Z,22.33
2022-08-15T01:48:59.416Z,22.38
2022-08-15T01:49:43.869Z,23.05
2022-08-15T01:50:30.616Z,22.95
2022-08-15T01:51:10.563Z,22.75
2022-08-15T01:51:53.100Z,22.48
2022-08-15T01:52:58.723Z,23.05
2022-08-15T01:53:29.828Z,23.63
2022-08-15T01:54:08.956Z,22.90
2022-08-15T01:55:02.191Z,22.77
2022-08-15T01:55:54.779Z,21.50
2022-08-15T01:56:36.592Z,22.45
2022-08-15T01:57:16.437Z,22.55
2022-08-15T01:57:51.184Z,21.67
2022-08-15T01:58:30.944Z,22.70
2022-08-15T01:59:08.852Z,22.25
2022-08-15T01:59:46.030Z,21.80
2022-08-15T02:00:30.772Z,22.85
2022-08-15T02:01:08.458Z,23.08
2022-08-15T02:01:47.038Z,22.25
2022-08-15T02:02:42.340Z,22.23
2022-08-15T02:03:21.336Z,21.85
2022-08-15T02:04:00.312Z,21.67
2022-08-15T02:04:37.296Z,21.10
2022-08-15T02:05:11.654Z,21.95
2022-08-15T02:05:46.642Z,20.80
2022-08-15T02:06:34.478Z,21.40
2022-08-15T02:07:21.289Z,21.48
2022-08-15T02:08:35.566Z,21.92
2022-08-15T02:08:54.373Z,23.08
2022-08-15T02:09:39.011Z,21.92
2022-08-15T02:10:28.070Z,22.05
2022-08-15T02:11:03.703Z,22.35
2022-08-15T02:12:00.335Z,21.92
2022-08-15T02:13:04.320Z,22.25
2022-08-15T02:13:31.672Z,23.80
2022-08-15T02:14:37.733Z,21.80
2022-08-15T02:15:09.922Z,20.65
2022-08-15T02:15:44.893Z,21.55
2022-08-15T02:16:20.791Z,21.65
2022-08-15T02:16:58.260Z,21.45
2022-08-15T02:17:35.100Z,20.95
2022-08-15T02:18:10.921Z,22.13
2022-08-15T02:18:46.870Z,21.48
2022-08-15T02:19:23.025Z,23.27
2022-08-15T02:19:59.309Z,22.05
2022-08-15T02:20:39.371Z,21.48
2022-08-15T02:21:15.638Z,21.98
2022-08-15T02:21:52.739Z,24.25
2022-08-15T02:22:28.947Z,22.50
2022-08-15T02:23:03.310Z,22.27
2022-08-15T02:23:38.879Z,22.30
2022-08-15T02:24:20.159Z,21.85
2022-08-15T02:24:59.282Z,23.58
2022-08-15T02:25:37.216Z,22.02
2022-08-15T02:26:13.043Z,22.95
2022-08-15T02:26:47.938Z,23.33
2022-08-15T02:27:29.234Z,23.35
2022-08-15T02:28:34.918Z,22.30
2022-08-15T02:29:06.284Z,22.45
2022-08-15T02:29:53.258Z,21.95
2022-08-15T02:30:32.664Z,21.90
2022-08-15T02:31:13.467Z,22.30
2022-08-15T02:31:50.249Z,21.95
2022-08-15T02:32:30.211Z,21.95
2022-08-15T02:33:08.297Z,23.20
2022-08-15T02:33:47.002Z,23.45
2022-08-15T02:34:22.269Z,23.58
2022-08-15T02:35:17.410Z,22.92
2022-08-15T02:35:53.788Z,21.85
2022-08-15T02:36:31.506Z,22.85
2022-08-15T02:37:17.040Z,21.92
2022-08-15T02:37:58.109Z,21.58
2022-08-15T02:38:48.277Z,21.92
2022-08-15T02:39:25.605Z,22.80
2022-08-15T02:40:47.123Z,21.75
2022-08-15T02:40:56.855Z,22.50
2022-08-15T02:41:37.706Z,22.25
2022-08-15T02:42:22.317Z,22.13
2022-08-15T02:42:58.236Z,22.05
2022-08-15T02:43:32.980Z,22.73
2022-08-15T02:44:08.273Z,23.50
2022-08-15T02:44:52.075Z,22.42
2022-08-15T02:45:30.740Z,21.85
2022-08-15T02:46:27.893Z,21.85
2022-08-15T02:47:08.547Z,21.13
2022-08-15T02:47:47.952Z,21.05
2022-08-15T02:48:27.124Z,23.35
2022-08-15T02:49:13.606Z,22.52
2022-08-15T02:49:50.306Z,22.90
2022-08-15T02:50:29.934Z,22.42
2022-08-15T02:51:05.205Z,22.05
2022-08-15T02:51:46.963Z,22.30
2022-08-15T02:52:31.071Z,23.02
2022-08-15T02:53:10.837Z,23.65
2022-08-15T02:53:48.247Z,22.02
2022-08-15T02:54:36.550Z,22.85
2022-08-15T02:55:15.702Z,21.58
2022-08-15T02:55:51.783Z,23.17
2022-08-15T02:56:30.550Z,22.20
2022-08-15T02:57:12.606Z,23.10
2022-08-15T02:57:58.513Z,23.08
2022-08-15T02:58:36.828Z,23.98
2022-08-15T02:59:16.521Z,23.77
2022-08-15T02:59:53.103Z,22.70
2022-08-15T03:00:35.018Z,23.08
2022-08-15T03:01:16.056Z,23.93
2022-08-15T03:01:57.348Z,24.10
2022-08-15T03:02:34.047Z,24.52
2022-08-15T03:03:15.143Z,24.02
2022-08-15T03:03:59.860Z,24.70
2022-08-15T03:04:37.585Z,23.20
2022-08-15T03:05:15.249Z,24.17
2022-08-15T03:05:54.592Z,23.00
2022-08-15T03:06:32.888Z,24.33
2022-08-15T03:07:11.842Z,24.30
2022-08-15T03:07:48.217Z,23.60
2022-08-15T03:08:24.816Z,23.63
2022-08-15T03:09:02.805Z,24.02
2022-08-15T03:09:44.876Z,23.40
2022-08-15T03:10:31.120Z,22.88
2022-08-15T03:11:08.267Z,23.45
2022-08-15T03:11:57.313Z,22.40
2022-08-15T03:12:55.710Z,24.17
2022-08-15T03:13:39.201Z,22.42
2022-08-15T03:14:33.174Z,23.70
2022-08-15T03:15:12.825Z,22.58
2022-08-15T03:15:57.660Z,24.80
2022-08-15T03:16:38.350Z,23.67
2022-08-15T03:17:14.731Z,23.77
2022-08-15T03:17:51.705Z,23.83
2022-08-15T03:18:31.726Z,23.70
2022-08-15T03:19:13.353Z,23.00
2022-08-15T03:19:52.579Z,23.40
2022-08-15T03:20:31.244Z,23.25
2022-08-15T03:21:08.118Z,23.10
2022-08-15T03:21:47.084Z,23.15
2022-08-15T03:22:42.709Z,22.38
2022-08-15T03:23:19.156Z,23.80
2022-08-15T03:23:55.994Z,22.40
2022-08-15T03:24:30.325Z,22.65
2022-08-15T03:25:04.779Z,22.95
2022-08-15T03:25:49.082Z,23.65
2022-08-15T03:26:46.390Z,22.55
2022-08-15T03:27:25.779Z,23.77
2022-08-15T03:28:03.478Z,23.13
2022-08-15T03:29:01.578Z,23.08
2022-08-15T03:29:36.717Z,24.55
2022-08-15T03:30:24.770Z,27.92
2022-08-15T03:31:01.774Z,26.55
2022-08-15T03:31:44.958Z,28.83
2022-08-15T03:32:32.394Z,29.50
2022-08-15T03:33:08.949Z,27.95
2022-08-15T03:33:55.125Z,27.17
2022-08-15T03:34:33.095Z,28.45
2022-08-15T03:35:10.652Z,29.05
2022-08-15T03:35:56.482Z,27.70
2022-08-15T03:36:32.263Z,27.23
2022-08-15T03:37:07.216Z,27.40
2022-08-15T03:37:43.933Z,29.30
2022-08-15T03:38:52.482Z,27.98
2022-08-15T03:39:27.944Z,27.17
2022-08-15T03:40:01.905Z,28.20
2022-08-15T03:40:44.354Z,27.23
2022-08-15T03:41:20.627Z,27.83
2022-08-15T03:42:00.464Z,27.20
2022-08-15T03:42:36.462Z,30.02
2022-08-15T03:43:14.289Z,26.63
2022-08-15T03:43:53.870Z,27.80
2022-08-15T03:44:33.055Z,26.55
2022-08-15T03:45:13.800Z,26.35
2022-08-15T03:45:50.601Z,27.27
2022-08-15T03:46:29.348Z,26.42
2022-08-15T03:47:06.044Z,26.65
2022-08-15T03:47:44.304Z,26.63
2022-08-15T03:48:21.236Z,26.08
2022-08-15T03:49:02.539Z,27.15
2022-08-15T03:50:23.234Z,25.63
2022-08-15T03:50:57.215Z,26.08
2022-08-15T03:52:13.404Z,25.60
2022-08-15T03:52:50.773Z,26.08
2022-08-15T03:53:28.503Z,26.95
2022-08-15T03:54:04.968Z,26.70
2022-08-15T03:54:43.678Z,27.33
2022-08-15T03:55:23.182Z,25.70
2022-08-15T03:56:00.877Z,26.42
2022-08-15T03:57:16.901Z,25.73
2022-08-15T03:58:02.806Z,26.42
2022-08-15T03:59:22.477Z,25.63
2022-08-15T04:00:00.341Z,25.00
2022-08-15T04:00:39.200Z,24.85
2022-08-15T04:01:16.603Z,25.20
2022-08-15T04:01:51.739Z,24.90
2022-08-15T04:02:32.297Z,26.08
2022-08-15T04:03:10.285Z,25.95
2022-08-15T04:03:45.119Z,25.90
2022-08-15T04:04:19.612Z,27.30
2022-08-15T04:05:00.005Z,26.23
2022-08-15T04:05:39.715Z,26.30
2022-08-15T04:06:27.885Z,35.90
2022-08-15T04:07:05.724Z,27.60
2022-08-15T04:07:48.043Z,25.42
2022-08-15T04:08:44.352Z,25.63
2022-08-15T04:09:30.139Z,25.92
2022-08-15T04:10:06.879Z,27.55
2022-08-15T04:11:02.589Z,38.20
2022-08-15T04:11:39.881Z,28.52
2022-08-15T04:12:31.465Z,27.02
2022-08-15T04:13:08.709Z,26.88
2022-08-15T04:13:44.974Z,25.85
2022-08-15T04:14:32.557Z,27.17
2022-08-15T04:16:06.409Z,27.98
2022-08-15T04:17:02.204Z,27.85
2022-08-15T04:17:56.466Z,26.60
2022-08-15T04:18:43.193Z,27.67
2022-08-15T04:19:22.283Z,26.23
2022-08-15T04:19:57.220Z,26.35
2022-08-15T04:20:38.387Z,25.45
2022-08-15T04:21:17.058Z,25.40
2022-08-15T04:21:51.181Z,23.95
2022-08-15T04:22:38.540Z,23.58
2022-08-15T04:23:17.064Z,24.40
2022-08-15T04:23:52.378Z,24.52
2022-08-15T04:24:29.013Z,23.75
2022-08-15T04:25:10.350Z,25.73
2022-08-15T04:25:54.677Z,25.48
2022-08-15T04:26:33.626Z,23.45
2022-08-15T04:27:09.943Z,24.73
2022-08-15T04:27:52.059Z,24.70
2022-08-15T04:28:53.217Z,23.20
2022-08-15T04:29:29.876Z,23.48
2022-08-15T04:30:05.439Z,24.27
2022-08-15T04:30:42.484Z,23.88
2022-08-15T04:31:22.970Z,22.55
2022-08-15T04:31:57.280Z,22.70
2022-08-15T04:32:58.335Z,22.20
2022-08-15T04:34:01.604Z,22.95
2022-08-15T04:34:47.765Z,22.42
2022-08-15T04:35:22.581Z,22.13
2022-08-15T04:35:58.683Z,22.50
2022-08-15T04:36:35.313Z,23.08
2022-08-15T04:37:12.526Z,23.20
2022-08-15T04:37:49.082Z,23.60
2022-08-15T04:38:25.594Z,22.67
2022-08-15T04:39:03.791Z,22.17
2022-08-15T04:39:42.932Z,22.55
2022-08-15T04:41:17.615Z,21.60
2022-08-15T04:41:18.568Z,21.98
2022-08-15T04:42:10.701Z,22.55
2022-08-15T04:42:57.583Z,21.95
2022-08-15T04:43:35.348Z,21.98
2022-08-15T04:44:17.957Z,22.20
2022-08-15T04:45:02.151Z,22.08
2022-08-15T04:45:37.444Z,23.20
2022-08-15T04:46:25.989Z,21.33
2022-08-15T04:47:02.817Z,20.88
2022-08-15T04:47:36.961Z,22.05
2022-08-15T04:48:20.317Z,21.50
2022-08-15T04:48:57.778Z,21.50
2022-08-15T04:49:32.513Z,21.52
2022-08-15T04:50:07.627Z,22.88
2022-08-15T04:50:41.711Z,21.02
2022-08-15T04:51:34.360Z,21.88
2022-08-15T04:52:11.974Z,22.65
2022-08-15T04:52:49.703Z,28.73
2022-08-15T04:53:31.511Z,23.15
2022-08-15T04:54:08.825Z,23.42
2022-08-15T04:54:57.885Z,22.55
2022-08-15T04:55:45.070Z,22.63
2022-08-15T04:56:48.480Z,22.67
2022-08-15T04:57:17.826Z,23.13
2022-08-15T04:57:55.863Z,22.08
2022-08-15T04:58:43.265Z,22.75
2022-08-15T04:59:35.941Z,21.45
2022-08-15T05:00:28.149Z,21.48
2022-08-15T05:01:18.224Z,22.00
2022-08-15T05:02:49.686Z,22.45
2022-08-15T05:03:02.181Z,22.85
2022-08-15T05:03:40.864Z,21.58
2022-08-15T05:04:23.890Z,22.30
2022-08-15T05:05:02.441Z,20.95
2022-08-15T05:05:44.338Z,24.80
2022-08-15T05:06:30.506Z,24.30
2022-08-15T05:07:17.160Z,22.02
2022-08-15T05:07:59.036Z,22.05
2022-08-15T05:08:45.625Z,22.45
2022-08-15T05:09:25.117Z,21.42
2022-08-15T05:10:03.661Z,22.55
2022-08-15T05:10:47.332Z,21.77
2022-08-15T05:11:25.113Z,73.32
2022-08-15T05:12:09.248Z,28.13
2022-08-15T05:12:47.660Z,23.58
2022-08-15T05:13:30.133Z,23.00
2022-08-15T05:14:05.210Z,22.42
2022-08-15T05:15:02.207Z,22.33
2022-08-15T05:15:48.281Z,21.85
2022-08-15T05:16:39.668Z,21.30
2022-08-15T05:17:17.586Z,21.92
2022-08-15T05:17:57.461Z,22.95
2022-08-15T05:18:35.633Z,21.77
2022-08-15T05:19:11.279Z,21.73
2022-08-15T05:19:45.733Z,21.67
2022-08-15T05:20:23.960Z,21.65
2022-08-15T05:20:59.571Z,22.98
2022-08-15T05:21:43.583Z,22.30
2022-08-15T05:22:36.800Z,21.73
2022-08-15T05:23:13.093Z,22.63
2022-08-15T05:23:57.525Z,20.52
2022-08-15T05:24:36.923Z,21.13
2022-08-15T05:25:11.637Z,21.00
2022-08-15T05:25:47.254Z,21.58
2022-08-15T05:26:53.503Z,21.98
2022-08-15T05:27:20.607Z,22.42
2022-08-15T05:27:56.275Z,21.58
2022-08-15T05:28:32.308Z,20.77
2022-08-15T05:29:10.606Z,22.58
2022-08-15T05:29:48.398Z,21.60
2022-08-15T05:30:22.817Z,20.98
2022-08-15T05:31:14.478Z,21.27
2022-08-15T05:31:53.729Z,21.17
2022-08-15T05:32:29.355Z,21.42
2022-08-15T05:33:04.994Z,20.95
2022-08-15T05:33:57.580Z,21.60
2022-08-15T05:34:43.076Z,20.33
2022-08-15T05:35:19.513Z,20.70
2022-08-15T05:35:56.635Z,20.88
2022-08-15T05:36:33.228Z,20.63
2022-08-15T05:37:11.954Z,21.20
2022-08-15T05:37:48.305Z,21.20
2022-08-15T05:38:31.128Z,20.38
2022-08-15T05:39:18.363Z,20.80
2022-08-15T05:39:54.354Z,20.98
2022-08-15T05:40:32.839Z,22.13
2022-08-15T05:41:19.929Z,21.10
2022-08-15T05:42:01.030Z,19.98
2022-08-15T05:43:24.637Z,20.23
2022-08-15T05:44:39.402Z,19.77
2022-08-15T05:45:30.755Z,20.33
2022-08-15T05:46:25.234Z,20.13
2022-08-15T05:47:09.475Z,19.65
2022-08-15T05:47:50.451Z,18.42
2022-08-15T05:48:36.012Z,19.08
2022-08-15T05:49:21.115Z,18.90
2022-08-15T05:50:05.294Z,16.53
2022-08-15T05:50:59.944Z,16.60
2022-08-15T05:51:53.932Z,15.43
2022-08-15T05:52:34.846Z,15.95
2022-08-15T05:53:15.594Z,18.42
2022-08-15T05:54:35.607Z,16.60
2022-08-15T05:55:17.595Z,15.93
2022-08-15T05:55:58.812Z,15.68
2022-08-15T05:56:42.036Z,15.65
2022-08-15T05:57:18.639Z,16.60
2022-08-15T05:58:36.700Z,18.00
2022-08-15T05:59:07.493Z,16.60
2022-08-15T05:59:48.601Z,16.77
2022-08-15T06:00:33.843Z,17.88
2022-08-15T06:01:15.546Z,17.58
2022-08-15T06:02:34.740Z,18.08
2022-08-15T06:02:57.796Z,18.17
2022-08-15T06:03:41.281Z,18.95
2022-08-15T06:04:30.656Z,19.08
2022-08-15T06:05:13.140Z,20.05
2022-08-15T06:05:49.980Z,18.83
2022-08-15T06:06:30.732Z,18.98
2022-08-15T06:07:51.890Z,18.77
2022-08-15T06:08:49.843Z,19.17
2022-08-15T06:09:31.958Z,18.10
2022-08-15T06:10:35.598Z,19.23
2022-08-15T06:11:15.663Z,17.95
2022-08-15T06:11:55.894Z,18.02
2022-08-15T06:12:36.220Z,18.92
2022-08-15T06:13:18.702Z,17.90
2022-08-15T06:13:57.525Z,18.10
2022-08-15T06:14:38.917Z,18.05
2022-08-15T06:16:00.697Z,18.00
2022-08-15T06:16:58.177Z,17.70
2022-08-15T06:17:39.044Z,17.20
2022-08-15T06:18:16.854Z,17.42
2022-08-15T06:18:55.032Z,16.70
2022-08-15T06:19:33.568Z,17.25
2022-08-15T06:20:29.311Z,17.95
2022-08-15T06:21:10.510Z,17.77
2022-08-15T06:21:53.085Z,16.25
2022-08-15T06:23:09.136Z,17.02
2022-08-15T06:23:52.629Z,17.00
2022-08-15T06:24:31.452Z,16.63
2022-08-15T06:25:12.373Z,16.08
2022-08-15T06:25:53.875Z,16.27
2022-08-15T06:26:41.125Z,17.40
2022-08-15T06:27:20.128Z,16.33
2022-08-15T06:28:52.107Z,15.88
2022-08-15T06:29:26.581Z,14.95
2022-08-15T06:30:04.948Z,14.45
2022-08-15T06:30:52.370Z,14.27
2022-08-15T06:31:39.539Z,13.73
2022-08-15T06:32:29.110Z,12.75
2022-08-15T06:33:09.479Z,13.60
2022-08-15T06:34:04.357Z,13.93
2022-08-15T06:34:47.054Z,13.77
2022-08-15T06:35:35.607Z,14.77
2022-08-15T06:36:20.101Z,14.57
2022-08-15T06:36:57.641Z,14.57
2022-08-15T06:38:01.149Z,14.13
2022-08-15T06:38:43.978Z,12.98
2022-08-15T06:39:32.033Z,13.75
2022-08-15T06:40:33.467Z,12.90
2022-08-15T06:41:20.038Z,11.35
2022-08-15T06:42:13.392Z,9.73
2022-08-15T06:43:01.405Z,9.60
2022-08-15T06:44:06.282Z,8.77
2022-08-15T06:44:51.931Z,8.65
2022-08-15T06:45:30.357Z,9.15
2022-08-15T06:46:40.003Z,9.02
2022-08-15T06:47:06.911Z,9.00
2022-08-15T06:47:45.612Z,10.05
2022-08-15T06:48:59.394Z,9.90
2022-08-15T06:49:36.130Z,9.20
2022-08-15T06:50:19.934Z,8.57
2022-08-15T06:51:02.005Z,8.20
2022-08-15T06:51:45.506Z,8.13
2022-08-15T06:52:25.605Z,8.07
2022-08-15T06:53:09.935Z,8.88
2022-08-15T06:53:50.644Z,12.25
2022-08-15T06:54:36.475Z,9.43
2022-08-15T06:55:20.363Z,9.20
2022-08-15T06:56:00.472Z,9.20
2022-08-15T06:56:42.911Z,9.57
2022-08-15T06:57:22.009Z,9.95
2022-08-15T06:58:05.071Z,10.38
2022-08-15T06:58:56.495Z,10.23
2022-08-15T06:59:56.684Z,10.88
2022-08-15T07:00:45.646Z,8.85
2022-08-15T07:02:15.689Z,7.65
2022-08-15T07:02:56.804Z,33.38
2022-08-15T07:03:43.190Z,10.50
2022-08-15T07:04:37.140Z,12.27
2022-08-15T07:06:01.799Z,10.57
2022-08-15T07:06:49.654Z,10.45
2022-08-15T07:07:37.312Z,10.18
2022-08-15T07:08:21.779Z,9.65
2022-08-15T07:09:03.114Z,9.02
2022-08-15T07:09:51.890Z,8.80
2022-08-15T07:10:33.421Z,7.82
2022-08-15T07:11:16.014Z,7.30
2022-08-15T07:12:01.165Z,7.00
2022-08-15T07:12:52.442Z,5.78
2022-08-15T07:13:44.802Z,5.40
2022-08-15T07:14:36.759Z,5.90
2022-08-15T07:15:19.765Z,4.60
2022-08-15T07:15:57.920Z,5.68
2022-08-15T07:16:46.587Z,4.78
2022-08-15T07:17:33.188Z,5.40
2022-08-15T07:18:21.309Z,4.68
2022-08-15T07:19:05.948Z,4.57
2022-08-15T07:20:00.099Z,5.35
2022-08-15T07:20:43.583Z,4.72
2022-08-15T07:21:22.884Z,5.07
2022-08-15T07:21:58.445Z,4.22
2022-08-15T07:22:35.196Z,4.00
2022-08-15T07:23:26.470Z,3.72
2022-08-15T07:24:34.006Z,4.13
2022-08-15T07:25:08.324Z,4.50
2022-08-15T07:25:47.768Z,4.88
2022-08-15T07:26:30.606Z,4.60
2022-08-15T07:27:11.106Z,3.85
2022-08-15T07:27:57.691Z,4.68
2022-08-15T07:28:39.963Z,5.30
2022-08-15T07:29:33.522Z,5.25
2022-08-15T07:30:31.211Z,4.07
2022-08-15T07:31:17.492Z,3.97
2022-08-15T07:32:14.388Z,4.22
2022-08-15T07:33:00.755Z,3.70
2022-08-15T07:33:43.633Z,4.40
2022-08-15T07:34:23.091Z,3.60
2022-08-15T07:35:01.881Z,3.80
2022-08-15T07:35:39.544Z,3.40
2022-08-15T07:36:30.534Z,3.40
2022-08-15T07:37:22.353Z,3.33
2022-08-15T07:38:02.304Z,3.60
2022-08-15T07:38:55.814Z,3.60
2022-08-15T07:39:33.826Z,3.25
2022-08-15T07:40:31.362Z,3.15
2022-08-15T07:41:29.783Z,3.55
2022-08-15T07:42:28.684Z,3.72
2022-08-15T07:43:27.391Z,3.50
2022-08-15T07:44:21.908Z,3.88
2022-08-15T07:44:59.418Z,4.13
2022-08-15T07:45:36.157Z,3.90
2022-08-15T07:46:22.698Z,3.65
2022-08-15T07:47:12.473Z,4.00
2022-08-15T07:47:58.239Z,4.20
2022-08-15T07:48:34.260Z,3.42
2022-08-15T07:49:22.105Z,3.38
2022-08-15T07:50:07.116Z,3.97
2022-08-15T07:50:45.549Z,3.40
2022-08-15T07:51:31.114Z,3.50
2022-08-15T07:53:19.714Z,3.80
2022-08-15T07:53:59.570Z,4.00
2022-08-15T07:54:51.081Z,3.88
2022-08-15T07:56:14.595Z,3.75
2022-08-15T07:56:38.196Z,3.70
2022-08-15T07:57:51.091Z,4.95
2022-08-15T07:58:26.558Z,3.40
2022-08-15T07:59:14.887Z,3.67
2022-08-15T08:00:39.087Z,3.25
2022-08-15T08:01:33.660Z,3.17
2022-08-15T08:02:26.759Z,2.95
2022-08-15T08:03:19.304Z,3.03
2022-08-15T08:03:59.310Z,3.10
2022-08-15T08:04:39.749Z,2.65
2022-08-15T08:06:33.283Z,3.08
2022-08-15T08:07:03.964Z,3.40
2022-08-15T08:07:41.571Z,2.88
2022-08-15T08:08:44.535Z,3.35
2022-08-15T08:09:24.208Z,2.97
2022-08-15T08:10:23.904Z,2.85
2022-08-15T08:11:01.945Z,2.65
2022-08-15T08:11:46.217Z,2.72
2022-08-15T08:12:41.115Z,5.07
2022-08-15T08:13:38.915Z,2.42
2022-08-15T08:14:40.746Z,2.58
2022-08-15T08:15:40.841Z,2.50
2022-08-15T08:16:29.888Z,3.85
2022-08-15T08:17:14.309Z,2.47
2022-08-15T08:17:56.334Z,2.40
2022-08-15T08:18:36.691Z,2.83
2022-08-15T08:19:12.495Z,2.30
2022-08-15T08:20:01.013Z,2.50
2022-08-15T08:20:43.639Z,2.80
2022-08-15T08:21:29.923Z,2.70
2022-08-15T08:22:21.935Z,3.22
2022-08-15T08:23:06.103Z,2.60
2022-08-15T08:23:44.508Z,2.78
2022-08-15T08:24:27.974Z,2.28
2022-08-15T08:25:09.929Z,2.72
2022-08-15T08:26:17.935Z,2.40
2022-08-15T08:26:56.920Z,4.13
2022-08-15T08:27:59.294Z,2.58
2022-08-15T08:28:49.676Z,2.60
2022-08-15T08:29:29.647Z,2.70
2022-08-15T08:30:43.859Z,2.90
2022-08-15T08:31:16.851Z,3.30
2022-08-15T08:32:18.567Z,2.47
2022-08-15T08:33:00.327Z,3.03
2022-08-15T08:33:41.592Z,3.40
2022-08-15T08:34:48.307Z,2.65
2022-08-15T08:35:26.571Z,2.90
2022-08-15T08:36:36.608Z,2.70
2022-08-15T08:37:06.361Z,3.00
2022-08-15T08:37:54.257Z,2.95
2022-08-15T08:39:05.113Z,2.95
2022-08-15T08:39:41.211Z,2.60
2022-08-15T08:40:36.874Z,2.53
2022-08-15T08:41:31.119Z,2.88
2022-08-15T08:42:19.765Z,2.70
2022-08-15T08:43:02.209Z,2.60
2022-08-15T08:43:49.165Z,3.22
2022-08-15T08:44:31.061Z,2.60
2022-08-15T08:45:09.821Z,3.70
2022-08-15T08:45:51.518Z,3.30
2022-08-15T08:46:32.762Z,2.92
2022-08-15T08:47:18.684Z,2.85
2022-08-15T08:48:06.996Z,3.30
2022-08-15T08:48:52.346Z,2.88
2022-08-15T08:50:32.141Z,2.83
2022-08-15T08:50:36.662Z,2.72
2022-08-15T08:51:19.383Z,2.65
2022-08-15T08:52:06.114Z,3.00
2022-08-15T08:52:55.927Z,2.90
2022-08-15T08:53:37.143Z,2.25
2022-08-15T08:54:54.434Z,2.33
2022-08-15T08:55:45.367Z,2.08
2022-08-15T08:56:32.132Z,2.13
2022-08-15T08:57:13.141Z,2.20
2022-08-15T08:57:52.944Z,2.50
2022-08-15T08:58:36.716Z,2.70
2022-08-15T08:59:20.727Z,2.60
2022-08-15T09:00:04.793Z,2.67
2022-08-15T09:00:44.655Z,3.80
2022-08-15T09:01:28.492Z,3.70
2022-08-15T09:02:06.136Z,9.10
2022-08-15T09:02:51.244Z,12.05
2022-08-15T09:03:31.419Z,8.32
2022-08-15T09:04:13.155Z,3.95
2022-08-15T09:04:52.449Z,3.15
2022-08-15T09:05:35.181Z,3.80
2022-08-15T09:06:26.657Z,3.28
2022-08-15T09:07:04.761Z,2.78
2022-08-15T09:07:50.545Z,3.45
2022-08-15T09:08:29.153Z,3.38
2022-08-15T09:09:09.253Z,3.70
2022-08-15T09:09:45.353Z,3.30
2022-08-15T09:10:27.629Z,3.22
2022-08-15T09:11:06.823Z,3.20
2022-08-15T09:11:46.247Z,3.22
2022-08-15T09:12:43.322Z,3.00
2022-08-15T09:13:38.050Z,3.40
2022-08-15T09:14:33.073Z,3.72
2022-08-15T09:15:17.198Z,3.95
2022-08-15T09:15:57.014Z,2.70
2022-08-15T09:16:38.575Z,2.60
2022-08-15T09:17:31.159Z,2.50
2022-08-15T09:18:10.637Z,2.92
2022-08-15T09:18:49.732Z,2.63
2022-08-15T09:19:29.416Z,2.90
2022-08-15T09:20:11.854Z,2.92
2022-08-15T09:20:55.669Z,3.40
2022-08-15T09:21:37.675Z,3.53
2022-08-15T09:22:14.122Z,3.63
2022-08-15T09:22:53.223Z,3.42
2022-08-15T09:23:33.204Z,3.33
2022-08-15T09:24:37.947Z,3.38
2022-08-15T09:25:07.143Z,3.20
2022-08-15T09:25:50.023Z,3.13
2022-08-15T09:26:32.920Z,3.90
2022-08-15T09:27:18.197Z,3.65
2022-08-15T09:27:58.585Z,3.40
2022-08-15T09:28:37.258Z,3.72
2022-08-15T09:29:19.668Z,4.00
2022-08-15T09:29:57.841Z,3.83
2022-08-15T09:30:45.617Z,3.90
2022-08-15T09:31:38.220Z,4.20
2022-08-15T09:32:31.655Z,3.33
2022-08-15T09:33:14.235Z,3.40
2022-08-15T09:34:04.560Z,3.17
2022-08-15T09:34:54.645Z,3.75
2022-08-15T09:35:36.810Z,3.50
2022-08-15T09:36:34.802Z,3.53
2022-08-15T09:37:23.181Z,3.33
2022-08-15T09:38:26.346Z,3.08
2022-08-15T09:39:08.612Z,2.60